Portada
METAR-TAF:

METAR-TAF

Aeroports :

Aeroport de Milà-Malpensa

Milà, Itàlia

latitud: 45-37N, longitud: 008-44E, altitud: 234 m

Observació

L'informe es va fer fa 20 minuts, a les 15:50 UTC
Vent 5 kt del Oest/Sud-Oest
Temperatura 10°C
Humitat 53%
Pressió 1018 hPa
Visibilitat 10 km o més
sense núvols per sota de 1500 mi sense presència de cumulonimbus.

METAR: LIMC 071550Z 24005KT CAVOK 10/01 Q1018 NOSIG

Hora: 17:10 (16:10 UTC)

Pronòstic

L'informe es va fer fa 5 hores i 10 minuts, a les 11:00 UTC
Pronòstic vàlid del 07 a les 12 UTC al 08 a les 18 UTC
Vent 5 kt amb direcció variable
Visibilitat 10 km o més
sense núvols per sota de 1500 mi sense presència de cumulonimbus.

TAF: LIMC 071100Z 0712/0818 VRB05KT CAVOK

Observacions i pronòstics meteorològics de més de 4000 aeroports (METAR i TAF).

Les estacions disponibles són els punts grocs i vermells al mapa.

Posi el ratolí al punt desitjat per veure el nom de l'estació.

Feu clic per veure les observacions i els pronòstics meteorològics.

Per canviar el mapa: feu clic els botons verds amb una creu de color negre per apropar; al botó verd amb un guió per allunyar la imatge; o en les fletxes verdes per a mapes adjacents.


METAR-TAF: